Jeanerette, Louisiana
Current Conditions -  °F | °C
As of 5:53 PM on Wednesday 26 Nov 2014 (Local Time) from KARA Reporting Station
Clear Clear  
Wind Chill: 59°   Ceiling: Unl
Heat Index: 59°   Visibility: 10mi
Dew Point: 45°   Wind: 7mph
Humidity: 60%   Direction: 230°SW
Pressure: 30.22"   Gusts: NA
Location:  29.91°N, 91.66°W
Report Text: KARA 262353Z 23006KT 10SM CLR 15/07 A3022 RMK AO2 SLP233 60000 T01500072 10217 20150 51012
Loading
Personal Weather Stations






























Interactive Weather Map New forecast layout! Learn more

10-Day Weather Forecast

Advertisements
Track Severe Weather on mobile